sensor_id;sensor_type;location;lat;lon;timestamp;P1;durP1;ratioP1;P2;durP2;ratioP2
69892;SDS011;61212;42.688;22.176;2022-07-23T00:01:37;10.70;;;4.38;;
69892;SDS011;61212;42.688;22.176;2022-07-23T00:04:03;14.02;;;5.30;;
69892;SDS011;61212;42.688;22.176;2022-07-23T00:06:48;10.35;;;4.63;;
69892;SDS011;61212;42.688;22.176;2022-07-23T00:09:14;9.07;;;4.75;;
69892;SDS011;61212;42.688;22.176;2022-07-23T00:11:40;9.90;;;4.85;;
69892;SDS011;61212;42.688;22.176;2022-07-23T00:14:06;12.63;;;5.05;;
69892;SDS011;61212;42.688;22.176;2022-07-23T00:16:32;7.88;;;4.43;;
69892;SDS011;61212;42.688;22.176;2022-07-23T00:18:58;15.20;;;4.45;;
69892;SDS011;61212;42.688;22.176;2022-07-23T00:21:26;12.07;;;4.97;;
69892;SDS011;61212;42.688;22.176;2022-07-23T00:23:52;9.63;;;4.40;;
69892;SDS011;61212;42.688;22.176;2022-07-23T00:26:18;7.68;;;4.47;;
69892;SDS011;61212;42.688;22.176;2022-07-23T00:28:44;13.55;;;5.47;;
69892;SDS011;61212;42.688;22.176;2022-07-23T00:31:10;9.88;;;4.55;;
69892;SDS011;61212;42.688;22.176;2022-07-23T00:33:37;10.32;;;4.40;;
69892;SDS011;61212;42.688;22.176;2022-07-23T00:36:03;10.68;;;4.55;;
69892;SDS011;61212;42.688;22.176;2022-07-23T00:38:29;8.98;;;4.07;;
69892;SDS011;61212;42.688;22.176;2022-07-23T00:40:55;7.82;;;4.40;;
69892;SDS011;61212;42.688;22.176;2022-07-23T00:43:22;13.30;;;4.63;;
69892;SDS011;61212;42.688;22.176;2022-07-23T00:45:49;13.32;;;5.07;;
69892;SDS011;61212;42.688;22.176;2022-07-23T00:48:15;12.90;;;5.13;;
69892;SDS011;61212;42.688;22.176;2022-07-23T00:50:41;13.60;;;5.40;;
69892;SDS011;61212;42.688;22.176;2022-07-23T00:53:08;9.63;;;4.82;;
69892;SDS011;61212;42.688;22.176;2022-07-23T00:55:34;9.48;;;5.03;;
69892;SDS011;61212;42.688;22.176;2022-07-23T00:58:00;9.43;;;4.88;;
69892;SDS011;61212;42.688;22.176;2022-07-23T01:00:27;9.18;;;4.63;;
69892;SDS011;61212;42.688;22.176;2022-07-23T01:02:53;9.90;;;3.88;;
69892;SDS011;61212;42.688;22.176;2022-07-23T01:05:19;7.28;;;4.53;;
69892;SDS011;61212;42.688;22.176;2022-07-23T01:07:50;12.63;;;4.28;;
69892;SDS011;61212;42.688;22.176;2022-07-23T01:10:16;11.63;;;4.78;;
69892;SDS011;61212;42.688;22.176;2022-07-23T01:12:59;10.82;;;4.45;;
69892;SDS011;61212;42.688;22.176;2022-07-23T01:15:25;6.93;;;4.32;;
69892;SDS011;61212;42.688;22.176;2022-07-23T01:17:51;8.65;;;4.68;;
69892;SDS011;61212;42.688;22.176;2022-07-23T01:20:18;9.52;;;4.47;;
69892;SDS011;61212;42.688;22.176;2022-07-23T01:22:44;13.13;;;5.57;;
69892;SDS011;61212;42.688;22.176;2022-07-23T01:25:10;7.85;;;4.68;;
69892;SDS011;61212;42.688;22.176;2022-07-23T01:27:36;10.45;;;4.72;;
69892;SDS011;61212;42.688;22.176;2022-07-23T01:30:02;12.10;;;4.93;;
69892;SDS011;61212;42.688;22.176;2022-07-23T01:32:29;7.43;;;4.65;;
69892;SDS011;61212;42.688;22.176;2022-07-23T01:34:54;9.68;;;4.25;;
69892;SDS011;61212;42.688;22.176;2022-07-23T01:37:20;7.93;;;4.60;;
69892;SDS011;61212;42.688;22.176;2022-07-23T01:39:46;7.93;;;4.30;;
69892;SDS011;61212;42.688;22.176;2022-07-23T01:42:12;10.48;;;4.38;;
69892;SDS011;61212;42.688;22.176;2022-07-23T01:44:37;10.20;;;4.40;;
69892;SDS011;61212;42.688;22.176;2022-07-23T01:47:04;14.32;;;4.18;;
69892;SDS011;61212;42.688;22.176;2022-07-23T01:49:30;11.13;;;4.47;;
69892;SDS011;61212;42.688;22.176;2022-07-23T01:51:56;7.13;;;4.15;;
69892;SDS011;61212;42.688;22.176;2022-07-23T01:54:28;9.85;;;4.32;;
69892;SDS011;61212;42.688;22.176;2022-07-23T01:56:55;6.53;;;4.32;;
69892;SDS011;61212;42.688;22.176;2022-07-23T01:59:22;11.57;;;4.70;;
69892;SDS011;61212;42.688;22.176;2022-07-23T02:01:48;9.48;;;4.38;;
69892;SDS011;61212;42.688;22.176;2022-07-23T02:04:19;10.68;;;4.47;;
69892;SDS011;61212;42.688;22.176;2022-07-23T02:06:46;7.28;;;4.20;;
69892;SDS011;61212;42.688;22.176;2022-07-23T02:09:12;7.93;;;3.97;;
69892;SDS011;61212;42.688;22.176;2022-07-23T02:11:38;8.63;;;4.35;;
69892;SDS011;61212;42.688;22.176;2022-07-23T02:14:04;7.97;;;4.60;;
69892;SDS011;61212;42.688;22.176;2022-07-23T02:16:30;10.10;;;4.40;;
69892;SDS011;61212;42.688;22.176;2022-07-23T02:18:56;16.02;;;4.88;;
69892;SDS011;61212;42.688;22.176;2022-07-23T02:21:22;8.77;;;4.35;;
69892;SDS011;61212;42.688;22.176;2022-07-23T02:23:48;10.05;;;4.00;;
69892;SDS011;61212;42.688;22.176;2022-07-23T02:26:14;8.25;;;4.55;;
69892;SDS011;61212;42.688;22.176;2022-07-23T02:28:40;7.35;;;4.75;;
69892;SDS011;61212;42.688;22.176;2022-07-23T02:31:06;13.52;;;4.00;;
69892;SDS011;61212;42.688;22.176;2022-07-23T02:33:33;7.80;;;4.13;;
69892;SDS011;61212;42.688;22.176;2022-07-23T02:35:59;11.68;;;4.18;;
69892;SDS011;61212;42.688;22.176;2022-07-23T02:38:25;8.32;;;3.83;;
69892;SDS011;61212;42.688;22.176;2022-07-23T02:40:52;8.82;;;4.43;;
69892;SDS011;61212;42.688;22.176;2022-07-23T02:43:18;11.90;;;4.72;;
69892;SDS011;61212;42.688;22.176;2022-07-23T02:45:44;8.20;;;4.55;;
69892;SDS011;61212;42.688;22.176;2022-07-23T02:48:10;9.07;;;4.88;;
69892;SDS011;61212;42.688;22.176;2022-07-23T02:50:37;8.05;;;4.03;;
69892;SDS011;61212;42.688;22.176;2022-07-23T02:53:04;8.40;;;4.50;;
69892;SDS011;61212;42.688;22.176;2022-07-23T02:55:30;15.70;;;4.00;;
69892;SDS011;61212;42.688;22.176;2022-07-23T02:57:56;7.72;;;3.97;;
69892;SDS011;61212;42.688;22.176;2022-07-23T03:00:22;13.40;;;4.28;;
69892;SDS011;61212;42.688;22.176;2022-07-23T03:02:48;6.93;;;4.20;;
69892;SDS011;61212;42.688;22.176;2022-07-23T03:05:15;6.70;;;4.30;;
69892;SDS011;61212;42.688;22.176;2022-07-23T03:07:41;7.72;;;4.22;;
69892;SDS011;61212;42.688;22.176;2022-07-23T03:10:07;9.70;;;3.97;;
69892;SDS011;61212;42.688;22.176;2022-07-23T03:12:33;19.48;;;5.63;;
69892;SDS011;61212;42.688;22.176;2022-07-23T03:14:59;6.90;;;4.53;;
69892;SDS011;61212;42.688;22.176;2022-07-23T03:17:25;10.40;;;3.85;;
69892;SDS011;61212;42.688;22.176;2022-07-23T03:19:52;7.97;;;3.83;;
69892;SDS011;61212;42.688;22.176;2022-07-23T03:22:18;9.75;;;4.50;;
69892;SDS011;61212;42.688;22.176;2022-07-23T03:24:44;8.27;;;4.55;;
69892;SDS011;61212;42.688;22.176;2022-07-23T03:27:19;10.98;;;4.20;;
69892;SDS011;61212;42.688;22.176;2022-07-23T03:29:45;8.85;;;4.28;;
69892;SDS011;61212;42.688;22.176;2022-07-23T03:32:12;9.93;;;4.35;;
69892;SDS011;61212;42.688;22.176;2022-07-23T03:34:38;10.63;;;4.65;;
69892;SDS011;61212;42.688;22.176;2022-07-23T03:37:03;7.55;;;4.13;;
69892;SDS011;61212;42.688;22.176;2022-07-23T03:39:29;12.00;;;4.10;;
69892;SDS011;61212;42.688;22.176;2022-07-23T03:41:55;9.93;;;5.05;;
69892;SDS011;61212;42.688;22.176;2022-07-23T03:44:21;11.50;;;5.30;;
69892;SDS011;61212;42.688;22.176;2022-07-23T03:46:47;8.93;;;4.22;;
69892;SDS011;61212;42.688;22.176;2022-07-23T03:49:14;7.68;;;4.78;;
69892;SDS011;61212;42.688;22.176;2022-07-23T03:51:39;8.23;;;4.40;;
69892;SDS011;61212;42.688;22.176;2022-07-23T03:54:06;8.45;;;4.30;;
69892;SDS011;61212;42.688;22.176;2022-07-23T03:56:32;9.40;;;4.30;;
69892;SDS011;61212;42.688;22.176;2022-07-23T03:58:58;10.05;;;4.80;;
69892;SDS011;61212;42.688;22.176;2022-07-23T04:01:24;9.88;;;4.93;;
69892;SDS011;61212;42.688;22.176;2022-07-23T04:03:49;9.40;;;4.53;;
69892;SDS011;61212;42.688;22.176;2022-07-23T04:06:15;10.57;;;4.65;;
69892;SDS011;61212;42.688;22.176;2022-07-23T04:08:41;14.93;;;5.07;;
69892;SDS011;61212;42.688;22.176;2022-07-23T04:11:07;13.73;;;5.07;;
69892;SDS011;61212;42.688;22.176;2022-07-23T04:13:33;10.85;;;5.05;;
69892;SDS011;61212;42.688;22.176;2022-07-23T04:15:59;9.00;;;4.57;;
69892;SDS011;61212;42.688;22.176;2022-07-23T04:18:26;10.02;;;4.63;;
69892;SDS011;61212;42.688;22.176;2022-07-23T04:20:51;9.82;;;4.90;;
69892;SDS011;61212;42.688;22.176;2022-07-23T04:23:17;12.43;;;4.75;;
69892;SDS011;61212;42.688;22.176;2022-07-23T04:25:44;6.75;;;4.78;;
69892;SDS011;61212;42.688;22.176;2022-07-23T04:28:10;12.13;;;4.97;;
69892;SDS011;61212;42.688;22.176;2022-07-23T04:30:36;12.02;;;4.82;;
69892;SDS011;61212;42.688;22.176;2022-07-23T04:33:02;10.30;;;5.40;;
69892;SDS011;61212;42.688;22.176;2022-07-23T04:35:31;9.23;;;4.75;;
69892;SDS011;61212;42.688;22.176;2022-07-23T04:37:58;8.80;;;5.25;;
69892;SDS011;61212;42.688;22.176;2022-07-23T04:40:24;9.48;;;5.22;;
69892;SDS011;61212;42.688;22.176;2022-07-23T04:42:50;7.28;;;4.78;;
69892;SDS011;61212;42.688;22.176;2022-07-23T04:45:16;10.32;;;5.35;;
69892;SDS011;61212;42.688;22.176;2022-07-23T04:47:42;15.15;;;6.72;;
69892;SDS011;61212;42.688;22.176;2022-07-23T04:50:09;12.88;;;5.32;;
69892;SDS011;61212;42.688;22.176;2022-07-23T04:52:35;7.30;;;5.05;;
69892;SDS011;61212;42.688;22.176;2022-07-23T04:55:01;8.48;;;5.03;;
69892;SDS011;61212;42.688;22.176;2022-07-23T04:57:28;11.25;;;5.38;;
69892;SDS011;61212;42.688;22.176;2022-07-23T04:59:54;39.50;;;7.20;;
69892;SDS011;61212;42.688;22.176;2022-07-23T05:02:20;19.45;;;10.93;;
69892;SDS011;61212;42.688;22.176;2022-07-23T05:04:46;13.50;;;7.00;;
69892;SDS011;61212;42.688;22.176;2022-07-23T05:07:12;11.90;;;8.20;;
69892;SDS011;61212;42.688;22.176;2022-07-23T05:09:38;11.73;;;8.13;;
69892;SDS011;61212;42.688;22.176;2022-07-23T05:12:05;12.13;;;7.28;;
69892;SDS011;61212;42.688;22.176;2022-07-23T05:14:31;12.60;;;6.47;;
69892;SDS011;61212;42.688;22.176;2022-07-23T05:16:56;13.23;;;5.40;;
69892;SDS011;61212;42.688;22.176;2022-07-23T05:19:23;16.80;;;5.72;;
69892;SDS011;61212;42.688;22.176;2022-07-23T05:21:49;12.48;;;4.90;;
69892;SDS011;61212;42.688;22.176;2022-07-23T05:24:14;15.50;;;5.72;;
69892;SDS011;61212;42.688;22.176;2022-07-23T05:26:40;13.63;;;6.13;;
69892;SDS011;61212;42.688;22.176;2022-07-23T05:29:06;12.88;;;6.25;;
69892;SDS011;61212;42.688;22.176;2022-07-23T05:31:32;11.60;;;5.97;;
69892;SDS011;61212;42.688;22.176;2022-07-23T05:33:58;8.02;;;5.43;;
69892;SDS011;61212;42.688;22.176;2022-07-23T05:36:24;11.88;;;7.18;;
69892;SDS011;61212;42.688;22.176;2022-07-23T05:38:49;13.30;;;6.18;;
69892;SDS011;61212;42.688;22.176;2022-07-23T05:41:15;16.42;;;6.13;;
69892;SDS011;61212;42.688;22.176;2022-07-23T05:43:41;15.23;;;7.38;;
69892;SDS011;61212;42.688;22.176;2022-07-23T05:46:07;11.20;;;7.32;;
69892;SDS011;61212;42.688;22.176;2022-07-23T05:48:33;15.13;;;5.97;;
69892;SDS011;61212;42.688;22.176;2022-07-23T05:50:59;12.48;;;5.68;;
69892;SDS011;61212;42.688;22.176;2022-07-23T05:53:26;15.00;;;6.05;;
69892;SDS011;61212;42.688;22.176;2022-07-23T05:55:51;12.80;;;5.28;;
69892;SDS011;61212;42.688;22.176;2022-07-23T05:58:17;9.73;;;5.45;;
69892;SDS011;61212;42.688;22.176;2022-07-23T06:00:43;10.13;;;5.85;;
69892;SDS011;61212;42.688;22.176;2022-07-23T06:03:09;13.95;;;6.80;;
69892;SDS011;61212;42.688;22.176;2022-07-23T06:05:35;13.30;;;5.88;;
69892;SDS011;61212;42.688;22.176;2022-07-23T06:08:00;10.57;;;6.40;;
69892;SDS011;61212;42.688;22.176;2022-07-23T06:10:27;8.77;;;5.60;;
69892;SDS011;61212;42.688;22.176;2022-07-23T06:12:52;12.27;;;5.22;;
69892;SDS011;61212;42.688;22.176;2022-07-23T06:15:18;7.00;;;4.43;;
69892;SDS011;61212;42.688;22.176;2022-07-23T06:17:45;7.80;;;5.28;;
69892;SDS011;61212;42.688;22.176;2022-07-23T06:20:11;12.32;;;5.05;;
69892;SDS011;61212;42.688;22.176;2022-07-23T06:22:37;10.10;;;5.53;;
69892;SDS011;61212;42.688;22.176;2022-07-23T06:25:03;8.60;;;5.20;;
